sensor_id;sensor_type;location;lat;lon;timestamp;pressure;altitude;pressure_sealevel;temperature;humidity
9261;BME280;4667;42.726;23.252;2023-07-28T00:02:18;95309.28;;;15.24;54.34
9261;BME280;4667;42.726;23.252;2023-07-28T00:04:45;95300.31;;;15.20;54.95
9261;BME280;4667;42.726;23.252;2023-07-28T00:07:12;95298.97;;;15.18;55.05
9261;BME280;4667;42.726;23.252;2023-07-28T00:09:39;95308.03;;;15.12;55.15
9261;BME280;4667;42.726;23.252;2023-07-28T00:12:08;95305.44;;;15.01;55.85
9261;BME280;4667;42.726;23.252;2023-07-28T00:14:35;95308.63;;;14.98;55.86
9261;BME280;4667;42.726;23.252;2023-07-28T00:17:05;95308.09;;;15.01;55.61
9261;BME280;4667;42.726;23.252;2023-07-28T00:19:32;95296.75;;;14.86;55.98
9261;BME280;4667;42.726;23.252;2023-07-28T00:21:59;95305.19;;;14.93;55.89
9261;BME280;4667;42.726;23.252;2023-07-28T00:24:27;95302.25;;;14.94;56.16
9261;BME280;4667;42.726;23.252;2023-07-28T00:26:53;95302.31;;;14.84;55.98
9261;BME280;4667;42.726;23.252;2023-07-28T00:29:23;95299.44;;;14.80;55.91
9261;BME280;4667;42.726;23.252;2023-07-28T00:31:50;95300.00;;;14.67;56.45
9261;BME280;4667;42.726;23.252;2023-07-28T00:34:18;95281.19;;;14.48;56.87
9261;BME280;4667;42.726;23.252;2023-07-28T00:36:47;95298.94;;;14.58;56.66
9261;BME280;4667;42.726;23.252;2023-07-28T00:39:14;95296.56;;;14.56;56.44
9261;BME280;4667;42.726;23.252;2023-07-28T00:41:40;95287.31;;;14.49;56.64
9261;BME280;4667;42.726;23.252;2023-07-28T00:44:08;95292.63;;;14.49;56.78
9261;BME280;4667;42.726;23.252;2023-07-28T00:46:36;95308.81;;;14.32;57.12
9261;BME280;4667;42.726;23.252;2023-07-28T00:49:04;95269.63;;;13.98;56.91
9261;BME280;4667;42.726;23.252;2023-07-28T00:51:31;95222.72;;;13.63;57.11
9261;BME280;4667;42.726;23.252;2023-07-28T00:53:59;95276.78;;;13.93;57.40
9261;BME280;4667;42.726;23.252;2023-07-28T00:56:27;95247.09;;;13.70;57.23
9261;BME280;4667;42.726;23.252;2023-07-28T00:58:55;95301.44;;;14.09;57.51
9261;BME280;4667;42.726;23.252;2023-07-28T01:01:22;95295.06;;;13.99;57.44
9261;BME280;4667;42.726;23.252;2023-07-28T01:03:51;95236.75;;;13.79;57.59
9261;BME280;4667;42.726;23.252;2023-07-28T01:06:24;95273.84;;;13.99;57.27
9261;BME280;4667;42.726;23.252;2023-07-28T01:08:56;95305.91;;;14.23;57.07
9261;BME280;4667;42.726;23.252;2023-07-28T01:11:25;95314.41;;;14.15;57.17
9261;BME280;4667;42.726;23.252;2023-07-28T01:13:53;95171.06;;;13.30;56.77
9261;BME280;4667;42.726;23.252;2023-07-28T01:16:21;95301.94;;;14.11;57.23
9261;BME280;4667;42.726;23.252;2023-07-28T01:18:48;95301.44;;;14.03;57.35
9261;BME280;4667;42.726;23.252;2023-07-28T01:21:24;95298.50;;;13.95;57.31
9261;BME280;4667;42.726;23.252;2023-07-28T01:23:57;95288.44;;;13.87;57.45
9261;BME280;4667;42.726;23.252;2023-07-28T01:26:30;95299.03;;;13.92;57.53
9261;BME280;4667;42.726;23.252;2023-07-28T01:28:59;95250.53;;;13.50;58.10
9261;BME280;4667;42.726;23.252;2023-07-28T01:31:27;95282.09;;;13.72;57.85
9261;BME280;4667;42.726;23.252;2023-07-28T01:33:54;95297.72;;;13.74;58.17
9261;BME280;4667;42.726;23.252;2023-07-28T01:36:25;95293.22;;;13.74;58.40
9261;BME280;4667;42.726;23.252;2023-07-28T01:38:52;95279.16;;;13.59;58.63
9261;BME280;4667;42.726;23.252;2023-07-28T01:41:19;95293.22;;;13.59;58.72
9261;BME280;4667;42.726;23.252;2023-07-28T01:43:48;95278.09;;;13.34;59.02
9261;BME280;4667;42.726;23.252;2023-07-28T01:46:15;95299.28;;;13.49;58.93
9261;BME280;4667;42.726;23.252;2023-07-28T01:48:42;95302.72;;;13.35;59.78
9261;BME280;4667;42.726;23.252;2023-07-28T01:51:09;95301.13;;;13.29;59.61
9261;BME280;4667;42.726;23.252;2023-07-28T01:53:35;95305.91;;;13.42;58.99
9261;BME280;4667;42.726;23.252;2023-07-28T01:56:02;95307.50;;;13.33;59.47
9261;BME280;4667;42.726;23.252;2023-07-28T01:58:29;95290.00;;;13.21;59.37
9261;BME280;4667;42.726;23.252;2023-07-28T02:00:58;95310.66;;;13.30;59.45
9261;BME280;4667;42.726;23.252;2023-07-28T02:03:25;95310.66;;;13.35;59.29
9261;BME280;4667;42.726;23.252;2023-07-28T02:05:52;95304.28;;;13.31;59.45
9261;BME280;4667;42.726;23.252;2023-07-28T02:08:19;95304.03;;;13.27;59.51
9261;BME280;4667;42.726;23.252;2023-07-28T02:10:46;95269.25;;;12.98;59.50
9261;BME280;4667;42.726;23.252;2023-07-28T02:13:13;95285.94;;;13.09;59.63
9261;BME280;4667;42.726;23.252;2023-07-28T02:15:41;95308.75;;;13.20;59.94
9261;BME280;4667;42.726;23.252;2023-07-28T02:18:09;95309.53;;;13.20;59.78
9261;BME280;4667;42.726;23.252;2023-07-28T02:20:36;95310.88;;;13.18;60.05
9261;BME280;4667;42.726;23.252;2023-07-28T02:23:04;95308.53;;;13.21;59.86
9261;BME280;4667;42.726;23.252;2023-07-28T02:25:31;95307.16;;;13.19;59.95
9261;BME280;4667;42.726;23.252;2023-07-28T02:27:58;95310.84;;;13.08;60.09
9261;BME280;4667;42.726;23.252;2023-07-28T02:30:25;95249.84;;;12.72;59.87
9261;BME280;4667;42.726;23.252;2023-07-28T02:32:52;95315.84;;;13.04;60.30
9261;BME280;4667;42.726;23.252;2023-07-28T02:35:21;95211.09;;;12.40;60.37
9261;BME280;4667;42.726;23.252;2023-07-28T02:37:48;95294.13;;;12.92;60.32
9261;BME280;4667;42.726;23.252;2023-07-28T02:40:15;95265.22;;;12.75;60.32
9261;BME280;4667;42.726;23.252;2023-07-28T02:42:42;95306.31;;;13.03;60.24
9261;BME280;4667;42.726;23.252;2023-07-28T02:45:09;95246.06;;;12.53;60.29
9261;BME280;4667;42.726;23.252;2023-07-28T02:47:37;95313.19;;;12.99;60.29
9261;BME280;4667;42.726;23.252;2023-07-28T02:50:05;95310.50;;;12.89;60.48
9261;BME280;4667;42.726;23.252;2023-07-28T02:52:36;95307.63;;;12.95;60.43
9261;BME280;4667;42.726;23.252;2023-07-28T02:55:04;95303.63;;;12.93;60.52
9261;BME280;4667;42.726;23.252;2023-07-28T02:57:30;95257.47;;;12.63;60.52
9261;BME280;4667;42.726;23.252;2023-07-28T02:59:57;95306.00;;;12.89;60.41
9261;BME280;4667;42.726;23.252;2023-07-28T03:02:25;95295.16;;;12.86;60.34
9261;BME280;4667;42.726;23.252;2023-07-28T03:04:52;95309.22;;;12.96;60.08
9261;BME280;4667;42.726;23.252;2023-07-28T03:07:19;95313.72;;;12.96;59.83
9261;BME280;4667;42.726;23.252;2023-07-28T03:09:48;95280.03;;;12.76;59.86
9261;BME280;4667;42.726;23.252;2023-07-28T03:12:17;95249.81;;;12.62;59.72
9261;BME280;4667;42.726;23.252;2023-07-28T03:14:44;95311.06;;;12.96;60.19
9261;BME280;4667;42.726;23.252;2023-07-28T03:17:12;95318.78;;;13.02;60.25
9261;BME280;4667;42.726;23.252;2023-07-28T03:19:39;95321.66;;;12.91;60.34
9261;BME280;4667;42.726;23.252;2023-07-28T03:22:06;95330.03;;;12.78;60.80
9261;BME280;4667;42.726;23.252;2023-07-28T03:24:35;95327.91;;;12.69;61.03
9261;BME280;4667;42.726;23.252;2023-07-28T03:27:05;95328.19;;;12.78;60.96
9261;BME280;4667;42.726;23.252;2023-07-28T03:29:33;95327.41;;;12.83;60.92
9261;BME280;4667;42.726;23.252;2023-07-28T03:32:00;95331.91;;;12.77;61.14
9261;BME280;4667;42.726;23.252;2023-07-28T03:34:27;95317.09;;;12.81;61.08
9261;BME280;4667;42.726;23.252;2023-07-28T03:36:54;95308.09;;;12.77;60.84
9261;BME280;4667;42.726;23.252;2023-07-28T03:39:22;95330.63;;;12.85;60.88
9261;BME280;4667;42.726;23.252;2023-07-28T03:41:49;95340.97;;;12.91;60.91
9261;BME280;4667;42.726;23.252;2023-07-28T03:44:18;95330.84;;;12.78;60.82
9261;BME280;4667;42.726;23.252;2023-07-28T03:46:45;95336.97;;;12.89;60.94
9261;BME280;4667;42.726;23.252;2023-07-28T03:49:12;95344.94;;;12.94;60.94
9261;BME280;4667;42.726;23.252;2023-07-28T03:51:39;95337.56;;;13.01;60.58
9261;BME280;4667;42.726;23.252;2023-07-28T03:54:06;95345.75;;;12.99;60.69
9261;BME280;4667;42.726;23.252;2023-07-28T03:56:33;95336.00;;;13.05;60.41
9261;BME280;4667;42.726;23.252;2023-07-28T03:59:00;95319.78;;;12.86;60.75
9261;BME280;4667;42.726;23.252;2023-07-28T04:01:29;95341.00;;;13.01;60.63
9261;BME280;4667;42.726;23.252;2023-07-28T04:03:56;95336.25;;;13.04;60.75
9261;BME280;4667;42.726;23.252;2023-07-28T04:06:39;95316.59;;;12.94;60.63
9261;BME280;4667;42.726;23.252;2023-07-28T04:09:06;95337.81;;;13.05;60.46
9261;BME280;4667;42.726;23.252;2023-07-28T04:11:34;95325.63;;;12.93;60.45
9261;BME280;4667;42.726;23.252;2023-07-28T04:14:01;95338.63;;;13.10;60.24
9261;BME280;4667;42.726;23.252;2023-07-28T04:16:30;95347.66;;;13.14;60.09
9261;BME280;4667;42.726;23.252;2023-07-28T04:18:58;95333.91;;;13.12;60.44
9261;BME280;4667;42.726;23.252;2023-07-28T04:21:26;95306.28;;;12.88;60.00
9261;BME280;4667;42.726;23.252;2023-07-28T04:23:53;95346.59;;;13.20;59.90
9261;BME280;4667;42.726;23.252;2023-07-28T04:26:20;95256.69;;;12.63;59.73
9261;BME280;4667;42.726;23.252;2023-07-28T04:28:47;95286.69;;;12.94;59.47
9261;BME280;4667;42.726;23.252;2023-07-28T04:31:14;95346.94;;;13.29;59.84
9261;BME280;4667;42.726;23.252;2023-07-28T04:33:42;95324.63;;;13.20;59.69
9261;BME280;4667;42.726;23.252;2023-07-28T04:36:09;95347.53;;;13.41;58.93
9261;BME280;4667;42.726;23.252;2023-07-28T04:38:36;95288.59;;;13.14;58.43
9261;BME280;4667;42.726;23.252;2023-07-28T04:41:04;95347.78;;;13.55;58.46
9261;BME280;4667;42.726;23.252;2023-07-28T04:43:31;95359.72;;;13.58;58.57
9261;BME280;4667;42.726;23.252;2023-07-28T04:45:58;95350.72;;;13.59;58.73
9261;BME280;4667;42.726;23.252;2023-07-28T04:48:26;95356.31;;;13.67;57.94
9261;BME280;4667;42.726;23.252;2023-07-28T04:50:55;95352.59;;;13.73;58.09
9261;BME280;4667;42.726;23.252;2023-07-28T04:53:22;95325.00;;;13.54;58.35
9261;BME280;4667;42.726;23.252;2023-07-28T04:55:49;95344.09;;;13.82;57.76
9261;BME280;4667;42.726;23.252;2023-07-28T04:58:17;95317.34;;;13.68;57.47
9261;BME280;4667;42.726;23.252;2023-07-28T05:00:44;95351.81;;;13.93;57.82
9261;BME280;4667;42.726;23.252;2023-07-28T05:03:10;95343.06;;;14.03;57.68
9261;BME280;4667;42.726;23.252;2023-07-28T05:05:37;95327.16;;;13.93;57.77
9261;BME280;4667;42.726;23.252;2023-07-28T05:08:06;95304.09;;;13.83;57.73
9261;BME280;4667;42.726;23.252;2023-07-28T05:10:33;95342.00;;;14.14;57.45
9261;BME280;4667;42.726;23.252;2023-07-28T05:13:00;95340.13;;;14.25;57.87
9261;BME280;4667;42.726;23.252;2023-07-28T05:15:27;95347.56;;;14.28;58.13
9261;BME280;4667;42.726;23.252;2023-07-28T05:17:54;95344.09;;;14.32;57.43
9261;BME280;4667;42.726;23.252;2023-07-28T05:20:21;95342.75;;;14.45;57.02
9261;BME280;4667;42.726;23.252;2023-07-28T05:22:48;95292.94;;;14.12;57.26
9261;BME280;4667;42.726;23.252;2023-07-28T05:25:17;95250.00;;;13.99;56.71
9261;BME280;4667;42.726;23.252;2023-07-28T05:27:44;95291.28;;;14.36;56.91
9261;BME280;4667;42.726;23.252;2023-07-28T05:30:11;95324.16;;;14.66;56.83
9261;BME280;4667;42.726;23.252;2023-07-28T05:32:38;95319.34;;;14.73;56.66
9261;BME280;4667;42.726;23.252;2023-07-28T05:35:05;95328.34;;;14.87;56.33
9261;BME280;4667;42.726;23.252;2023-07-28T05:37:33;95339.72;;;14.98;56.17
9261;BME280;4667;42.726;23.252;2023-07-28T05:40:00;95343.69;;;15.00;56.52
9261;BME280;4667;42.726;23.252;2023-07-28T05:42:34;95341.47;;;15.18;55.74
9261;BME280;4667;42.726;23.252;2023-07-28T05:45:01;95336.91;;;15.28;55.35
9261;BME280;4667;42.726;23.252;2023-07-28T05:47:28;95311.66;;;15.31;55.37
9261;BME280;4667;42.726;23.252;2023-07-28T05:49:55;95209.47;;;14.69;55.48
9261;BME280;4667;42.726;23.252;2023-07-28T05:52:22;95324.78;;;15.62;55.10
9261;BME280;4667;42.726;23.252;2023-07-28T05:54:49;95305.41;;;15.56;55.82
9261;BME280;4667;42.726;23.252;2023-07-28T05:57:15;95330.19;;;15.85;54.64
9261;BME280;4667;42.726;23.252;2023-07-28T05:59:44;95325.34;;;15.98;54.58
9261;BME280;4667;42.726;23.252;2023-07-28T06:02:11;95322.88;;;16.01;55.04
9261;BME280;4667;42.726;23.252;2023-07-28T06:04:38;95311.66;;;16.09;53.83
9261;BME280;4667;42.726;23.252;2023-07-28T06:07:06;95297.22;;;16.16;53.90
9261;BME280;4667;42.726;23.252;2023-07-28T06:09:33;95303.50;;;16.30;53.94
9261;BME280;4667;42.726;23.252;2023-07-28T06:12:00;95318.69;;;16.53;53.02
9261;BME280;4667;42.726;23.252;2023-07-28T06:14:26;95309.22;;;16.66;52.62
9261;BME280;4667;42.726;23.252;2023-07-28T06:16:55;95311.53;;;16.78;51.61
9261;BME280;4667;42.726;23.252;2023-07-28T06:19:22;95303.81;;;16.76;51.87
9261;BME280;4667;42.726;23.252;2023-07-28T06:21:50;95314.47;;;17.00;51.57
9261;BME280;4667;42.726;23.252;2023-07-28T06:24:20;95308.16;;;17.15;51.40
9261;BME280;4667;42.726;23.252;2023-07-28T06:26:47;95309.59;;;17.26;50.79
9261;BME280;4667;42.726;23.252;2023-07-28T06:29:14;95304.78;;;17.28;48.96
9261;BME280;4667;42.726;23.252;2023-07-28T06:31:41;95293.75;;;17.35;48.97
9261;BME280;4667;42.726;23.252;2023-07-28T06:34:09;95305.72;;;17.56;48.85
9261;BME280;4667;42.726;23.252;2023-07-28T06:36:36;95300.25;;;17.66;49.40
9261;BME280;4667;42.726;23.252;2023-07-28T06:39:03;95306.84;;;17.69;48.76
9261;BME280;4667;42.726;23.252;2023-07-28T06:41:30;95304.97;;;17.70;48.13
9261;BME280;4667;42.726;23.252;2023-07-28T06:43:57;95308.75;;;17.87;47.79
9261;BME280;4667;42.726;23.252;2023-07-28T06:46:24;95274.81;;;17.74;47.76
9261;BME280;4667;42.726;23.252;2023-07-28T06:48:51;95276.44;;;17.89;47.60
9261;BME280;4667;42.726;23.252;2023-07-28T06:51:20;95302.31;;;18.21;47.35
9261;BME280;4667;42.726;23.252;2023-07-28T06:53:47;95305.50;;;18.23;46.68
9261;BME280;4667;42.726;23.252;2023-07-28T06:56:14;95295.63;;;18.37;46.19
9261;BME280;4667;42.726;23.252;2023-07-28T06:58:41;95291.19;;;18.47;46.04
9261;BME280;4667;42.726;23.252;2023-07-28T07:01:07;95296.88;;;18.73;46.02
9261;BME280;4667;42.726;23.252;2023-07-28T07:03:36;95296.50;;;18.79;45.79
9261;BME280;4667;42.726;23.252;2023-07-28T07:06:03;95300.03;;;18.88;45.36
9261;BME280;4667;42.726;23.252;2023-07-28T07:08:31;95295.19;;;19.04;45.36
9261;BME280;4667;42.726;23.252;2023-07-28T07:10:58;95296.22;;;19.31;43.97
9261;BME280;4667;42.726;23.252;2023-07-28T07:13:25;95295.03;;;19.23;43.68
9261;BME280;4667;42.726;23.252;2023-07-28T07:15:52;95286.13;;;19.28;42.97
9261;BME280;4667;42.726;23.252;2023-07-28T07:18:20;95292.44;;;19.45;43.92
9261;BME280;4667;42.726;23.252;2023-07-28T07:20:47;95305.91;;;19.40;43.71
9261;BME280;4667;42.726;23.252;2023-07-28T07:23:13;95298.53;;;19.60;43.82
9261;BME280;4667;42.726;23.252;2023-07-28T07:25:42;95306.72;;;19.77;42.26
9261;BME280;4667;42.726;23.252;2023-07-28T07:28:09;95300.75;;;19.80;41.77
9261;BME280;4667;42.726;23.252;2023-07-28T07:30:36;95297.03;;;19.90;41.97
9261;BME280;4667;42.726;23.252;2023-07-28T07:33:03;95298.50;;;19.96;42.35
9261;BME280;4667;42.726;23.252;2023-07-28T07:35:30;95303.00;;;20.09;42.12
9261;BME280;4667;42.726;23.252;2023-07-28T07:37:57;95304.53;;;20.24;42.19
9261;BME280;4667;42.726;23.252;2023-07-28T07:40:24;95306.69;;;20.44;41.77
9261;BME280;4667;42.726;23.252;2023-07-28T07:42:52;95310.41;;;20.35;41.22
9261;BME280;4667;42.726;23.252;2023-07-28T07:45:20;95308.94;;;20.51;40.19
9261;BME280;4667;42.726;23.252;2023-07-28T07:47:46;95299.88;;;20.69;40.55
9261;BME280;4667;42.726;23.252;2023-07-28T07:50:13;95303.53;;;20.73;40.48
9261;BME280;4667;42.726;23.252;2023-07-28T07:52:40;95304.88;;;21.02;40.80
9261;BME280;4667;42.726;23.252;2023-07-28T07:55:09;95295.94;;;21.15;40.15
9261;BME280;4667;42.726;23.252;2023-07-28T07:57:36;95303.41;;;21.36;39.69
9261;BME280;4667;42.726;23.252;2023-07-28T08:00:06;95303.13;;;21.46;38.93
9261;BME280;4667;42.726;23.252;2023-07-28T08:02:34;95302.81;;;21.56;39.17
9261;BME280;4667;42.726;23.252;2023-07-28T08:05:00;95297.59;;;21.60;39.87
9261;BME280;4667;42.726;23.252;2023-07-28T08:07:28;95297.75;;;21.89;39.53
9261;BME280;4667;42.726;23.252;2023-07-28T08:09:55;95293.63;;;22.09;38.81
9261;BME280;4667;42.726;23.252;2023-07-28T08:12:22;95296.00;;;22.28;38.11
9261;BME280;4667;42.726;23.252;2023-07-28T08:14:49;95288.19;;;22.44;38.33
9261;BME280;4667;42.726;23.252;2023-07-28T08:17:18;95292.84;;;22.73;38.36
9261;BME280;4667;42.726;23.252;2023-07-28T08:19:45;95282.69;;;22.78;36.80
9261;BME280;4667;42.726;23.252;2023-07-28T08:22:12;95278.97;;;23.00;37.60
9261;BME280;4667;42.726;23.252;2023-07-28T08:24:39;95273.19;;;23.19;36.42
9261;BME280;4667;42.726;23.252;2023-07-28T08:27:06;95276.34;;;23.42;36.20
9261;BME280;4667;42.726;23.252;2023-07-28T08:29:33;95278.00;;;23.55;36.14
9261;BME280;4667;42.726;23.252;2023-07-28T08:32:00;95278.31;;;23.75;36.13
9261;BME280;4667;42.726;23.252;2023-07-28T08:34:30;95279.56;;;23.98;36.30
9261;BME280;4667;42.726;23.252;2023-07-28T08:36:57;95281.06;;;24.08;34.67
9261;BME280;4667;42.726;23.252;2023-07-28T08:39:24;95284.66;;;24.12;34.82
9261;BME280;4667;42.726;23.252;2023-07-28T08:41:58;95281.13;;;24.32;34.79
9261;BME280;4667;42.726;23.252;2023-07-28T08:44:26;95290.78;;;24.33;34.14
9261;BME280;4667;42.726;23.252;2023-07-28T08:46:53;95282.09;;;24.49;33.58
9261;BME280;4667;42.726;23.252;2023-07-28T08:49:20;95272.25;;;24.77;32.53
9261;BME280;4667;42.726;23.252;2023-07-28T08:51:50;95272.44;;;25.46;32.03
9261;BME280;4667;42.726;23.252;2023-07-28T08:54:17;95260.16;;;26.16;31.52
9261;BME280;4667;42.726;23.252;2023-07-28T08:56:46;95259.69;;;26.90;30.25
9261;BME280;4667;42.726;23.252;2023-07-28T08:59:20;95261.97;;;27.55;29.38
9261;BME280;4667;42.726;23.252;2023-07-28T09:01:50;95254.25;;;28.34;28.20
9261;BME280;4667;42.726;23.252;2023-07-28T09:04:17;95245.00;;;28.58;26.36
9261;BME280;4667;42.726;23.252;2023-07-28T09:06:46;95224.41;;;29.30;27.34
9261;BME280;4667;42.726;23.252;2023-07-28T09:09:15;95201.97;;;29.66;25.48
9261;BME280;4667;42.726;23.252;2023-07-28T09:11:44;95238.19;;;30.41;25.81
9261;BME280;4667;42.726;23.252;2023-07-28T09:14:12;95230.13;;;30.55;24.99
9261;BME280;4667;42.726;23.252;2023-07-28T09:16:39;95203.47;;;30.31;23.93
9261;BME280;4667;42.726;23.252;2023-07-28T09:19:07;95223.22;;;31.17;24.41
9261;BME280;4667;42.726;23.252;2023-07-28T09:21:35;95216.81;;;31.46;24.14
9261;BME280;4667;42.726;23.252;2023-07-28T09:24:03;95209.50;;;31.65;23.69
9261;BME280;4667;42.726;23.252;2023-07-28T09:26:38;95180.34;;;31.79;23.23
9261;BME280;4667;42.726;23.252;2023-07-28T09:29:13;95168.56;;;31.54;22.05
9261;BME280;4667;42.726;23.252;2023-07-28T09:31:41;95200.75;;;32.32;22.09
9261;BME280;4667;42.726;23.252;2023-07-28T09:34:09;95191.44;;;32.58;22.46
9261;BME280;4667;42.726;23.252;2023-07-28T09:36:37;95159.84;;;32.60;22.47
9261;BME280;4667;42.726;23.252;2023-07-28T09:39:04;95182.41;;;33.15;21.50
9261;BME280;4667;42.726;23.252;2023-07-28T09:41:34;95159.78;;;33.14;21.38
9261;BME280;4667;42.726;23.252;2023-07-28T09:44:06;95169.97;;;32.96;21.45
9261;BME280;4667;42.726;23.252;2023-07-28T09:46:35;95176.09;;;33.53;20.96
9261;BME280;4667;42.726;23.252;2023-07-28T09:49:05;95172.38;;;33.92;21.09
9261;BME280;4667;42.726;23.252;2023-07-28T09:51:34;95150.63;;;33.71;20.89
9261;BME280;4667;42.726;23.252;2023-07-28T09:54:05;95170.41;;;33.93;20.28
9261;BME280;4667;42.726;23.252;2023-07-28T09:56:32;95157.44;;;34.11;19.96
9261;BME280;4667;42.726;23.252;2023-07-28T09:59:02;95168.16;;;34.50;19.24
9261;BME280;4667;42.726;23.252;2023-07-28T10:01:32;95141.38;;;34.17;19.42
9261;BME280;4667;42.726;23.252;2023-07-28T10:04:01;95160.81;;;34.33;20.48
9261;BME280;4667;42.726;23.252;2023-07-28T10:06:28;95153.56;;;34.64;19.63
9261;BME280;4667;42.726;23.252;2023-07-28T10:08:56;95164.06;;;34.73;19.53
9261;BME280;4667;42.726;23.252;2023-07-28T10:11:24;95171.09;;;34.70;19.29
9261;BME280;4667;42.726;23.252;2023-07-28T10:13:51;95153.41;;;34.82;18.88
9261;BME280;4667;42.726;23.252;2023-07-28T10:16:32;95138.81;;;34.51;19.19
9261;BME280;4667;42.726;23.252;2023-07-28T10:19:03;95147.72;;;35.07;18.93
9261;BME280;4667;42.726;23.252;2023-07-28T10:21:31;95140.22;;;35.49;17.90
9261;BME280;4667;42.726;23.252;2023-07-28T10:23:58;95145.13;;;35.61;18.27
9261;BME280;4667;42.726;23.252;2023-07-28T10:26:35;95115.09;;;35.81;17.63
9261;BME280;4667;42.726;23.252;2023-07-28T10:29:09;95110.34;;;35.85;17.75
9261;BME280;4667;42.726;23.252;2023-07-28T10:31:49;95134.44;;;36.28;17.54
9261;BME280;4667;42.726;23.252;2023-07-28T10:34:18;95139.75;;;36.65;17.06
9261;BME280;4667;42.726;23.252;2023-07-28T10:36:47;95134.47;;;36.75;16.97
9261;BME280;4667;42.726;23.252;2023-07-28T10:39:23;95125.44;;;36.74;15.64
9261;BME280;4667;42.726;23.252;2023-07-28T10:42:01;95139.25;;;36.94;17.20
9261;BME280;4667;42.726;23.252;2023-07-28T10:44:29;95084.66;;;36.26;17.62
9261;BME280;4667;42.726;23.252;2023-07-28T10:46:58;95125.00;;;36.56;17.15
9261;BME280;4667;42.726;23.252;2023-07-28T10:49:26;95132.16;;;36.23;17.33
9261;BME280;4667;42.726;23.252;2023-07-28T10:51:52;95052.72;;;35.58;16.56
9261;BME280;4667;42.726;23.252;2023-07-28T10:54:20;95121.88;;;36.54;16.56
9261;BME280;4667;42.726;23.252;2023-07-28T10:56:48;95122.31;;;36.25;15.56
9261;BME280;4667;42.726;23.252;2023-07-28T10:59:16;95113.13;;;36.35;16.70
9261;BME280;4667;42.726;23.252;2023-07-28T11:01:46;95114.53;;;36.94;15.87
9261;BME280;4667;42.726;23.252;2023-07-28T11:04:16;95101.09;;;36.76;15.74
9261;BME280;4667;42.726;23.252;2023-07-28T11:06:45;95103.34;;;36.81;15.50
9261;BME280;4667;42.726;23.252;2023-07-28T11:09:13;95083.75;;;37.22;15.56
9261;BME280;4667;42.726;23.252;2023-07-28T11:11:42;95088.25;;;37.13;15.65
9261;BME280;4667;42.726;23.252;2023-07-28T11:14:10;95034.59;;;37.25;16.34
9261;BME280;4667;42.726;23.252;2023-07-28T11:16:38;95076.31;;;37.00;15.51
9261;BME280;4667;42.726;23.252;2023-07-28T11:19:08;95101.75;;;37.47;14.91
9261;BME280;4667;42.726;23.252;2023-07-28T11:21:37;95055.59;;;37.55;16.44
9261;BME280;4667;42.726;23.252;2023-07-28T11:24:05;95092.00;;;37.22;15.84
9261;BME280;4667;42.726;23.252;2023-07-28T11:26:34;95071.38;;;37.31;15.95
9261;BME280;4667;42.726;23.252;2023-07-28T11:29:01;95070.84;;;37.39;16.10
9261;BME280;4667;42.726;23.252;2023-07-28T11:31:29;95072.78;;;37.59;14.52
9261;BME280;4667;42.726;23.252;2023-07-28T11:33:56;95044.34;;;37.82;15.62
9261;BME280;4667;42.726;23.252;2023-07-28T11:36:24;95062.28;;;37.90;15.63
9261;BME280;4667;42.726;23.252;2023-07-28T11:38:55;95049.03;;;38.01;15.18
9261;BME280;4667;42.726;23.252;2023-07-28T11:41:22;95033.13;;;37.56;15.88
9261;BME280;4667;42.726;23.252;2023-07-28T11:43:50;94997.97;;;37.47;15.50
9261;BME280;4667;42.726;23.252;2023-07-28T11:46:34;95028.34;;;38.29;15.78
9261;BME280;4667;42.726;23.252;2023-07-28T11:49:08;95052.06;;;38.56;15.70
9261;BME280;4667;42.726;23.252;2023-07-28T11:51:39;95048.88;;;38.24;15.12
9261;BME280;4667;42.726;23.252;2023-07-28T11:54:14;95056.09;;;38.18;14.73
9261;BME280;4667;42.726;23.252;2023-07-28T11:56:41;95055.84;;;37.96;15.53
9261;BME280;4667;42.726;23.252;2023-07-28T11:59:09;95064.13;;;37.77;15.24
9261;BME280;4667;42.726;23.252;2023-07-28T12:01:51;95058.91;;;37.46;15.52
9261;BME280;4667;42.726;23.252;2023-07-28T12:04:25;95053.53;;;37.59;15.96
9261;BME280;4667;42.726;23.252;2023-07-28T12:07:07;95054.28;;;37.43;16.35
9261;BME280;4667;42.726;23.252;2023-07-28T12:09:50;95004.09;;;37.55;15.97
9261;BME280;4667;42.726;23.252;2023-07-28T12:12:22;95039.56;;;38.18;15.40
9261;BME280;4667;42.726;23.252;2023-07-28T12:14:49;95051.28;;;38.06;15.43
9261;BME280;4667;42.726;23.252;2023-07-28T12:17:18;95012.66;;;37.93;14.94
9261;BME280;4667;42.726;23.252;2023-07-28T12:19:57;94979.59;;;37.77;14.96
9261;BME280;4667;42.726;23.252;2023-07-28T12:22:25;95028.50;;;38.67;14.83
9261;BME280;4667;42.726;23.252;2023-07-28T12:24:54;95007.44;;;39.19;15.00
9261;BME280;4667;42.726;23.252;2023-07-28T12:27:21;94935.13;;;38.57;14.73
9261;BME280;4667;42.726;23.252;2023-07-28T12:29:50;94922.47;;;38.14;14.58
9261;BME280;4667;42.726;23.252;2023-07-28T12:32:17;95029.00;;;39.37;14.05
9261;BME280;4667;42.726;23.252;2023-07-28T12:34:45;94945.94;;;38.64;13.66
9261;BME280;4667;42.726;23.252;2023-07-28T12:37:12;94977.09;;;38.32;13.45
9261;BME280;4667;42.726;23.252;2023-07-28T12:39:39;94985.44;;;39.15;13.91
9261;BME280;4667;42.726;23.252;2023-07-28T12:42:08;94946.69;;;38.64;14.76
9261;BME280;4667;42.726;23.252;2023-07-28T12:44:35;95002.41;;;39.01;15.12
9261;BME280;4667;42.726;23.252;2023-07-28T12:47:03;94947.88;;;38.51;14.30
9261;BME280;4667;42.726;23.252;2023-07-28T12:49:31;94879.84;;;38.18;13.86
9261;BME280;4667;42.726;23.252;2023-07-28T12:52:03;94892.31;;;38.39;14.04
9261;BME280;4667;42.726;23.252;2023-07-28T12:54:32;94993.78;;;39.28;14.23
9261;BME280;4667;42.726;23.252;2023-07-28T12:57:00;94994.88;;;39.43;13.64
9261;BME280;4667;42.726;23.252;2023-07-28T12:59:29;94959.06;;;39.02;13.98
9261;BME280;4667;42.726;23.252;2023-07-28T13:01:56;94982.34;;;39.00;13.82
9261;BME280;4667;42.726;23.252;2023-07-28T13:04:23;94867.75;;;38.16;15.10
9261;BME280;4667;42.726;23.252;2023-07-28T13:06:50;94958.25;;;38.59;13.97
9261;BME280;4667;42.726;23.252;2023-07-28T13:09:20;94978.75;;;38.58;14.29
9261;BME280;4667;42.726;23.252;2023-07-28T13:11:47;94868.72;;;37.77;14.92
9261;BME280;4667;42.726;23.252;2023-07-28T13:14:14;94972.63;;;38.96;14.37
9261;BME280;4667;42.726;23.252;2023-07-28T13:16:43;94834.34;;;37.85;15.33